Four Lakes, Washington
Current Conditions -  °F | °C
As of 4:58 PM on Monday 26 Jan 2015 (Local Time) from KSKA Reporting Station
Clear Clear  
Wind Chill: 43°   Ceiling: Unl
Heat Index: 43°   Visibility: 10mi
Dew Point: 43°   Wind: 2mph
Humidity: 100%   Direction: 160°SSE
Pressure: 30"   Gusts: NA
Location:  47.56°N, 117.59°W
Report Text: KSKA 270058Z AUTO 16002KT 10SM CLR 06/06 A3000 RMK AO2 SLP176 T00590059
Loading
Personal Weather Stations






























Interactive Weather Map New forecast layout! Learn more

10-Day Weather Forecast

Advertisements
Track Severe Weather on mobile